sensor_id;sensor_type;location;lat;lon;timestamp;temperature;humidity
31639;DHT22;18248;51.522;7.020;2023-02-28T00:00:01;2.10;99.90
31639;DHT22;18248;51.522;7.020;2023-02-28T00:03:06;2.10;99.90
31639;DHT22;18248;51.522;7.020;2023-02-28T00:06:07;2.10;99.90
31639;DHT22;18248;51.522;7.020;2023-02-28T00:09:05;2.00;99.90
31639;DHT22;18248;51.522;7.020;2023-02-28T00:12:04;2.00;99.90
31639;DHT22;18248;51.522;7.020;2023-02-28T00:15:10;2.00;99.90
31639;DHT22;18248;51.522;7.020;2023-02-28T00:18:09;2.00;99.90
31639;DHT22;18248;51.522;7.020;2023-02-28T00:21:08;2.00;99.90
31639;DHT22;18248;51.522;7.020;2023-02-28T00:24:07;1.90;99.90
31639;DHT22;18248;51.522;7.020;2023-02-28T00:27:05;1.90;99.90
31639;DHT22;18248;51.522;7.020;2023-02-28T00:30:05;1.90;99.90
31639;DHT22;18248;51.522;7.020;2023-02-28T00:33:05;1.80;99.90
31639;DHT22;18248;51.522;7.020;2023-02-28T00:36:06;1.80;99.90
31639;DHT22;18248;51.522;7.020;2023-02-28T00:39:05;1.80;99.90
31639;DHT22;18248;51.522;7.020;2023-02-28T00:42:07;1.70;99.90
31639;DHT22;18248;51.522;7.020;2023-02-28T00:45:06;1.70;99.90
31639;DHT22;18248;51.522;7.020;2023-02-28T00:48:06;1.70;99.90
31639;DHT22;18248;51.522;7.020;2023-02-28T00:51:05;1.60;99.90
31639;DHT22;18248;51.522;7.020;2023-02-28T00:54:04;1.60;99.90
31639;DHT22;18248;51.522;7.020;2023-02-28T00:57:03;1.60;99.90
31639;DHT22;18248;51.522;7.020;2023-02-28T01:00:03;1.60;99.90
31639;DHT22;18248;51.522;7.020;2023-02-28T01:03:02;1.60;99.90
31639;DHT22;18248;51.522;7.020;2023-02-28T01:06:00;1.50;99.90
31639;DHT22;18248;51.522;7.020;2023-02-28T01:08:59;1.50;99.90
31639;DHT22;18248;51.522;7.020;2023-02-28T01:11:58;1.50;99.90
31639;DHT22;18248;51.522;7.020;2023-02-28T01:14:57;1.50;99.90
31639;DHT22;18248;51.522;7.020;2023-02-28T01:17:56;1.40;99.90
31639;DHT22;18248;51.522;7.020;2023-02-28T01:20:54;1.40;99.90
31639;DHT22;18248;51.522;7.020;2023-02-28T01:23:56;1.40;99.90
31639;DHT22;18248;51.522;7.020;2023-02-28T01:26:55;1.30;99.90
31639;DHT22;18248;51.522;7.020;2023-02-28T01:29:54;1.40;99.90
31639;DHT22;18248;51.522;7.020;2023-02-28T01:32:52;1.30;99.90
31639;DHT22;18248;51.522;7.020;2023-02-28T01:36:01;1.30;99.90
31639;DHT22;18248;51.522;7.020;2023-02-28T01:39:00;1.30;99.90
31639;DHT22;18248;51.522;7.020;2023-02-28T01:42:01;1.20;99.90
31639;DHT22;18248;51.522;7.020;2023-02-28T01:45:14;1.20;99.90
31639;DHT22;18248;51.522;7.020;2023-02-28T01:48:15;1.20;99.90
31639;DHT22;18248;51.522;7.020;2023-02-28T01:51:45;1.20;99.90
31639;DHT22;18248;51.522;7.020;2023-02-28T01:54:52;1.10;99.90
31639;DHT22;18248;51.522;7.020;2023-02-28T01:57:56;1.20;99.90
31639;DHT22;18248;51.522;7.020;2023-02-28T02:00:56;1.10;99.90
31639;DHT22;18248;51.522;7.020;2023-02-28T02:03:59;1.10;99.90
31639;DHT22;18248;51.522;7.020;2023-02-28T02:06:59;1.00;99.90
31639;DHT22;18248;51.522;7.020;2023-02-28T02:10:19;1.00;99.90
31639;DHT22;18248;51.522;7.020;2023-02-28T02:13:53;1.00;99.90
31639;DHT22;18248;51.522;7.020;2023-02-28T02:20:16;0.90;99.90
31639;DHT22;18248;51.522;7.020;2023-02-28T02:43:25;0.60;99.90
31639;DHT22;18248;51.522;7.020;2023-02-28T02:46:39;0.60;99.90
31639;DHT22;18248;51.522;7.020;2023-02-28T02:49:43;0.50;99.90
31639;DHT22;18248;51.522;7.020;2023-02-28T02:52:48;0.50;99.90
31639;DHT22;18248;51.522;7.020;2023-02-28T02:55:50;0.50;99.90
31639;DHT22;18248;51.522;7.020;2023-02-28T02:58:55;0.50;99.90
31639;DHT22;18248;51.522;7.020;2023-02-28T03:01:59;0.50;99.90
31639;DHT22;18248;51.522;7.020;2023-02-28T03:05:01;0.50;99.90
31639;DHT22;18248;51.522;7.020;2023-02-28T03:08:03;0.50;99.90
31639;DHT22;18248;51.522;7.020;2023-02-28T03:11:09;0.50;99.90
31639;DHT22;18248;51.522;7.020;2023-02-28T03:17:35;0.50;99.90
31639;DHT22;18248;51.522;7.020;2023-02-28T03:21:11;0.40;99.90
31639;DHT22;18248;51.522;7.020;2023-02-28T03:30:36;0.40;99.90
31639;DHT22;18248;51.522;7.020;2023-02-28T03:33:42;0.40;99.90
31639;DHT22;18248;51.522;7.020;2023-02-28T03:36:50;0.40;99.90
31639;DHT22;18248;51.522;7.020;2023-02-28T03:39:57;0.30;99.90
31639;DHT22;18248;51.522;7.020;2023-02-28T03:43:03;0.30;99.90
31639;DHT22;18248;51.522;7.020;2023-02-28T03:46:09;0.30;99.90
31639;DHT22;18248;51.522;7.020;2023-02-28T03:49:20;0.30;99.90
31639;DHT22;18248;51.522;7.020;2023-02-28T03:52:24;0.30;99.90
31639;DHT22;18248;51.522;7.020;2023-02-28T03:55:23;0.30;99.90
31639;DHT22;18248;51.522;7.020;2023-02-28T03:58:37;0.30;99.90
31639;DHT22;18248;51.522;7.020;2023-02-28T04:01:40;0.30;99.90
31639;DHT22;18248;51.522;7.020;2023-02-28T04:04:40;0.30;99.90
31639;DHT22;18248;51.522;7.020;2023-02-28T04:07:46;0.30;99.90
31639;DHT22;18248;51.522;7.020;2023-02-28T04:11:00;0.30;99.90
31639;DHT22;18248;51.522;7.020;2023-02-28T04:14:00;0.20;99.90
31639;DHT22;18248;51.522;7.020;2023-02-28T04:16:58;0.20;99.90
31639;DHT22;18248;51.522;7.020;2023-02-28T04:19:57;0.20;99.90
31639;DHT22;18248;51.522;7.020;2023-02-28T04:22:55;0.20;99.90
31639;DHT22;18248;51.522;7.020;2023-02-28T04:25:55;0.20;99.90
31639;DHT22;18248;51.522;7.020;2023-02-28T04:28:53;0.20;99.90
31639;DHT22;18248;51.522;7.020;2023-02-28T04:31:55;0.10;99.90
31639;DHT22;18248;51.522;7.020;2023-02-28T04:34:57;0.10;99.90
31639;DHT22;18248;51.522;7.020;2023-02-28T04:37:55;0.10;99.90
31639;DHT22;18248;51.522;7.020;2023-02-28T04:40:57;0.10;99.90
31639;DHT22;18248;51.522;7.020;2023-02-28T04:43:55;0.00;99.90
31639;DHT22;18248;51.522;7.020;2023-02-28T04:46:54;0.00;99.90
31639;DHT22;18248;51.522;7.020;2023-02-28T04:49:52;0.00;99.90
31639;DHT22;18248;51.522;7.020;2023-02-28T04:52:51;0.10;99.90
31639;DHT22;18248;51.522;7.020;2023-02-28T04:55:49;0.00;99.90
31639;DHT22;18248;51.522;7.020;2023-02-28T04:58:48;0.00;99.90
31639;DHT22;18248;51.522;7.020;2023-02-28T05:01:48;0.00;99.90
31639;DHT22;18248;51.522;7.020;2023-02-28T05:04:47;0.00;99.90
31639;DHT22;18248;51.522;7.020;2023-02-28T05:07:45;0.00;99.90
31639;DHT22;18248;51.522;7.020;2023-02-28T05:10:44;0.00;99.90
31639;DHT22;18248;51.522;7.020;2023-02-28T05:13:42;-0.10;99.90
31639;DHT22;18248;51.522;7.020;2023-02-28T05:16:41;-0.10;99.90
31639;DHT22;18248;51.522;7.020;2023-02-28T05:19:40;-0.10;99.90
31639;DHT22;18248;51.522;7.020;2023-02-28T05:22:40;-0.10;99.90
31639;DHT22;18248;51.522;7.020;2023-02-28T05:25:40;-0.10;99.90
31639;DHT22;18248;51.522;7.020;2023-02-28T05:28:38;-0.20;99.90
31639;DHT22;18248;51.522;7.020;2023-02-28T05:31:37;-0.20;99.90
31639;DHT22;18248;51.522;7.020;2023-02-28T05:34:40;-0.20;99.90
31639;DHT22;18248;51.522;7.020;2023-02-28T05:37:39;-0.20;99.90
31639;DHT22;18248;51.522;7.020;2023-02-28T05:40:38;-0.20;99.90
31639;DHT22;18248;51.522;7.020;2023-02-28T05:43:38;-0.20;99.90
31639;DHT22;18248;51.522;7.020;2023-02-28T05:46:36;-0.20;99.90
31639;DHT22;18248;51.522;7.020;2023-02-28T05:49:35;-0.20;99.90
31639;DHT22;18248;51.522;7.020;2023-02-28T05:52:35;-0.30;99.90
31639;DHT22;18248;51.522;7.020;2023-02-28T05:55:33;-0.30;99.90
31639;DHT22;18248;51.522;7.020;2023-02-28T05:58:34;-0.30;99.90
31639;DHT22;18248;51.522;7.020;2023-02-28T06:01:44;-0.40;99.90
31639;DHT22;18248;51.522;7.020;2023-02-28T06:04:46;-0.40;99.90
31639;DHT22;18248;51.522;7.020;2023-02-28T06:07:44;-0.50;99.90
31639;DHT22;18248;51.522;7.020;2023-02-28T06:10:44;-0.60;99.90
31639;DHT22;18248;51.522;7.020;2023-02-28T06:13:43;-0.60;99.90
31639;DHT22;18248;51.522;7.020;2023-02-28T06:16:42;-0.60;99.90
31639;DHT22;18248;51.522;7.020;2023-02-28T06:19:41;-0.70;99.90
31639;DHT22;18248;51.522;7.020;2023-02-28T06:22:39;-0.70;99.90
31639;DHT22;18248;51.522;7.020;2023-02-28T06:25:39;-0.70;99.90
31639;DHT22;18248;51.522;7.020;2023-02-28T06:28:38;-0.80;99.90
31639;DHT22;18248;51.522;7.020;2023-02-28T06:31:36;-0.70;99.90
31639;DHT22;18248;51.522;7.020;2023-02-28T06:34:36;-0.70;99.90
31639;DHT22;18248;51.522;7.020;2023-02-28T06:37:35;-0.70;99.90
31639;DHT22;18248;51.522;7.020;2023-02-28T06:40:33;-0.70;99.90
31639;DHT22;18248;51.522;7.020;2023-02-28T06:43:40;-0.70;99.90
31639;DHT22;18248;51.522;7.020;2023-02-28T06:46:43;-0.70;99.90
31639;DHT22;18248;51.522;7.020;2023-02-28T06:49:43;-0.70;99.90
31639;DHT22;18248;51.522;7.020;2023-02-28T06:52:43;-0.70;99.90
31639;DHT22;18248;51.522;7.020;2023-02-28T06:55:42;-0.70;99.90
31639;DHT22;18248;51.522;7.020;2023-02-28T06:58:40;-0.60;99.90
31639;DHT22;18248;51.522;7.020;2023-02-28T07:01:39;-0.60;99.90
31639;DHT22;18248;51.522;7.020;2023-02-28T07:04:39;-0.60;99.90
31639;DHT22;18248;51.522;7.020;2023-02-28T07:07:39;-0.50;99.90
31639;DHT22;18248;51.522;7.020;2023-02-28T07:10:47;-0.50;99.90
31639;DHT22;18248;51.522;7.020;2023-02-28T07:13:56;-0.50;99.90
31639;DHT22;18248;51.522;7.020;2023-02-28T07:16:55;-0.50;99.90
31639;DHT22;18248;51.522;7.020;2023-02-28T07:19:54;-0.50;99.90
31639;DHT22;18248;51.522;7.020;2023-02-28T07:22:52;-0.50;99.90
31639;DHT22;18248;51.522;7.020;2023-02-28T07:25:54;-0.40;99.90
31639;DHT22;18248;51.522;7.020;2023-02-28T07:28:54;-0.40;99.90
31639;DHT22;18248;51.522;7.020;2023-02-28T07:31:54;-0.40;99.90
31639;DHT22;18248;51.522;7.020;2023-02-28T07:34:54;-0.30;99.90
31639;DHT22;18248;51.522;7.020;2023-02-28T07:37:52;-0.30;99.90
31639;DHT22;18248;51.522;7.020;2023-02-28T07:40:51;-0.20;99.90
31639;DHT22;18248;51.522;7.020;2023-02-28T07:43:49;-0.10;99.90
31639;DHT22;18248;51.522;7.020;2023-02-28T07:46:48;-0.10;99.90
31639;DHT22;18248;51.522;7.020;2023-02-28T07:49:47;0.00;99.90
31639;DHT22;18248;51.522;7.020;2023-02-28T07:52:46;0.10;99.90
31639;DHT22;18248;51.522;7.020;2023-02-28T07:55:45;0.10;99.90
31639;DHT22;18248;51.522;7.020;2023-02-28T07:58:43;0.20;99.90
31639;DHT22;18248;51.522;7.020;2023-02-28T08:01:42;0.30;99.90
31639;DHT22;18248;51.522;7.020;2023-02-28T08:04:43;0.40;99.90
31639;DHT22;18248;51.522;7.020;2023-02-28T08:07:41;0.50;99.90
31639;DHT22;18248;51.522;7.020;2023-02-28T08:10:40;0.50;99.90
31639;DHT22;18248;51.522;7.020;2023-02-28T08:13:38;0.60;99.90
31639;DHT22;18248;51.522;7.020;2023-02-28T08:16:37;0.70;99.90
31639;DHT22;18248;51.522;7.020;2023-02-28T08:19:37;0.80;99.90
31639;DHT22;18248;51.522;7.020;2023-02-28T08:22:35;0.90;99.90
31639;DHT22;18248;51.522;7.020;2023-02-28T08:25:34;1.00;99.90
31639;DHT22;18248;51.522;7.020;2023-02-28T08:28:32;1.00;99.90
31639;DHT22;18248;51.522;7.020;2023-02-28T08:31:32;1.10;99.90
31639;DHT22;18248;51.522;7.020;2023-02-28T08:34:31;1.20;99.90
31639;DHT22;18248;51.522;7.020;2023-02-28T08:37:30;1.30;99.90
31639;DHT22;18248;51.522;7.020;2023-02-28T08:40:28;1.40;99.90
31639;DHT22;18248;51.522;7.020;2023-02-28T08:43:28;1.40;99.90
31639;DHT22;18248;51.522;7.020;2023-02-28T08:46:26;1.50;99.90
31639;DHT22;18248;51.522;7.020;2023-02-28T08:49:25;1.70;99.90
31639;DHT22;18248;51.522;7.020;2023-02-28T08:52:25;1.70;99.90
31639;DHT22;18248;51.522;7.020;2023-02-28T08:55:23;1.80;99.90
31639;DHT22;18248;51.522;7.020;2023-02-28T08:58:22;1.90;99.90
31639;DHT22;18248;51.522;7.020;2023-02-28T09:01:26;1.90;99.90
31639;DHT22;18248;51.522;7.020;2023-02-28T09:04:27;2.00;99.90
31639;DHT22;18248;51.522;7.020;2023-02-28T09:07:28;2.10;99.90
31639;DHT22;18248;51.522;7.020;2023-02-28T09:10:27;2.20;99.90
31639;DHT22;18248;51.522;7.020;2023-02-28T09:13:26;2.30;99.90
31639;DHT22;18248;51.522;7.020;2023-02-28T09:16:25;2.40;99.90
31639;DHT22;18248;51.522;7.020;2023-02-28T09:19:23;2.50;99.90
31639;DHT22;18248;51.522;7.020;2023-02-28T09:22:22;2.60;99.90
31639;DHT22;18248;51.522;7.020;2023-02-28T09:25:21;2.70;99.90
31639;DHT22;18248;51.522;7.020;2023-02-28T09:28:20;2.80;99.90
31639;DHT22;18248;51.522;7.020;2023-02-28T09:31:25;2.90;99.90
31639;DHT22;18248;51.522;7.020;2023-02-28T09:34:25;3.00;99.90
31639;DHT22;18248;51.522;7.020;2023-02-28T09:37:24;3.10;99.90
31639;DHT22;18248;51.522;7.020;2023-02-28T09:40:25;3.20;99.90
31639;DHT22;18248;51.522;7.020;2023-02-28T09:43:28;3.30;99.90
31639;DHT22;18248;51.522;7.020;2023-02-28T09:46:37;3.30;99.90
31639;DHT22;18248;51.522;7.020;2023-02-28T09:49:41;3.50;99.90
31639;DHT22;18248;51.522;7.020;2023-02-28T09:52:40;3.60;99.90
31639;DHT22;18248;51.522;7.020;2023-02-28T09:55:50;3.70;99.90
31639;DHT22;18248;51.522;7.020;2023-02-28T10:09:31;4.30;99.90
31639;DHT22;18248;51.522;7.020;2023-02-28T10:12:32;4.40;99.90
31639;DHT22;18248;51.522;7.020;2023-02-28T10:15:33;4.60;99.90
31639;DHT22;18248;51.522;7.020;2023-02-28T10:18:44;4.80;99.90
31639;DHT22;18248;51.522;7.020;2023-02-28T10:21:49;5.00;99.90
31639;DHT22;18248;51.522;7.020;2023-02-28T10:24:51;5.20;99.90
31639;DHT22;18248;51.522;7.020;2023-02-28T10:27:54;5.40;99.90
31639;DHT22;18248;51.522;7.020;2023-02-28T10:30:54;5.60;99.90
31639;DHT22;18248;51.522;7.020;2023-02-28T10:33:53;5.80;99.90
31639;DHT22;18248;51.522;7.020;2023-02-28T10:36:52;5.90;99.90
31639;DHT22;18248;51.522;7.020;2023-02-28T10:39:51;6.10;99.90
31639;DHT22;18248;51.522;7.020;2023-02-28T10:46:18;6.50;99.90
31639;DHT22;18248;51.522;7.020;2023-02-28T10:49:27;6.50;99.90
31639;DHT22;18248;51.522;7.020;2023-02-28T10:52:39;6.40;99.90
31639;DHT22;18248;51.522;7.020;2023-02-28T10:55:38;6.20;99.90
31639;DHT22;18248;51.522;7.020;2023-02-28T11:01:55;5.90;99.90
31639;DHT22;18248;51.522;7.020;2023-02-28T11:04:54;5.90;99.90
31639;DHT22;18248;51.522;7.020;2023-02-28T11:08:02;6.00;99.90
31639;DHT22;18248;51.522;7.020;2023-02-28T11:11:06;6.20;99.90
31639;DHT22;18248;51.522;7.020;2023-02-28T11:14:05;6.30;99.90
31639;DHT22;18248;51.522;7.020;2023-02-28T11:17:25;6.40;99.90
31639;DHT22;18248;51.522;7.020;2023-02-28T11:20:28;6.30;99.90
31639;DHT22;18248;51.522;7.020;2023-02-28T11:23:31;6.50;99.90
31639;DHT22;18248;51.522;7.020;2023-02-28T11:26:42;6.90;99.90
31639;DHT22;18248;51.522;7.020;2023-02-28T11:29:47;7.20;99.90
31639;DHT22;18248;51.522;7.020;2023-02-28T11:32:49;7.40;99.90
31639;DHT22;18248;51.522;7.020;2023-02-28T11:35:49;7.60;97.00
31639;DHT22;18248;51.522;7.020;2023-02-28T11:38:48;7.80;99.90
31639;DHT22;18248;51.522;7.020;2023-02-28T11:41:54;7.90;99.90
31639;DHT22;18248;51.522;7.020;2023-02-28T11:48:26;8.20;96.20
31639;DHT22;18248;51.522;7.020;2023-02-28T11:51:33;8.40;94.60
31639;DHT22;18248;51.522;7.020;2023-02-28T12:01:19;8.50;96.10
31639;DHT22;18248;51.522;7.020;2023-02-28T12:07:58;8.30;91.10
31639;DHT22;18248;51.522;7.020;2023-02-28T12:17:51;8.50;93.70
31639;DHT22;18248;51.522;7.020;2023-02-28T12:24:04;8.80;92.60
31639;DHT22;18248;51.522;7.020;2023-02-28T12:27:07;8.90;92.30
31639;DHT22;18248;51.522;7.020;2023-02-28T12:30:30;9.00;93.90
31639;DHT22;18248;51.522;7.020;2023-02-28T12:33:34;9.00;91.70
31639;DHT22;18248;51.522;7.020;2023-02-28T12:36:35;8.90;92.20
31639;DHT22;18248;51.522;7.020;2023-02-28T12:39:42;9.00;92.80
31639;DHT22;18248;51.522;7.020;2023-02-28T12:42:46;8.80;91.90
31639;DHT22;18248;51.522;7.020;2023-02-28T12:45:53;8.70;91.90
31639;DHT22;18248;51.522;7.020;2023-02-28T12:48:58;8.50;90.80
31639;DHT22;18248;51.522;7.020;2023-02-28T12:51:59;8.60;92.60
31639;DHT22;18248;51.522;7.020;2023-02-28T12:55:31;8.70;91.80
31639;DHT22;18248;51.522;7.020;2023-02-28T12:58:48;8.90;91.90
31639;DHT22;18248;51.522;7.020;2023-02-28T13:09:03;9.20;92.50
31639;DHT22;18248;51.522;7.020;2023-02-28T13:12:12;9.30;91.50
31639;DHT22;18248;51.522;7.020;2023-02-28T13:21:28;9.30;91.20
31639;DHT22;18248;51.522;7.020;2023-02-28T13:24:46;9.40;92.30
31639;DHT22;18248;51.522;7.020;2023-02-28T13:27:54;9.60;91.90
31639;DHT22;18248;51.522;7.020;2023-02-28T13:40:33;9.20;88.50
31639;DHT22;18248;51.522;7.020;2023-02-28T13:47:27;9.40;91.20
31639;DHT22;18248;51.522;7.020;2023-02-28T13:53:30;9.60;92.00
31639;DHT22;18248;51.522;7.020;2023-02-28T13:56:46;9.80;91.30
31639;DHT22;18248;51.522;7.020;2023-02-28T14:00:42;9.90;91.30
31639;DHT22;18248;51.522;7.020;2023-02-28T14:03:23;9.80;91.60
31639;DHT22;18248;51.522;7.020;2023-02-28T14:06:37;9.90;92.30
31639;DHT22;18248;51.522;7.020;2023-02-28T14:09:40;10.00;90.70
31639;DHT22;18248;51.522;7.020;2023-02-28T14:16:11;9.80;91.20
31639;DHT22;18248;51.522;7.020;2023-02-28T14:19:22;9.70;91.40
31639;DHT22;18248;51.522;7.020;2023-02-28T14:36:10;9.30;90.40
31639;DHT22;18248;51.522;7.020;2023-02-28T14:39:20;9.30;90.80
31639;DHT22;18248;51.522;7.020;2023-02-28T14:42:35;9.30;91.50
31639;DHT22;18248;51.522;7.020;2023-02-28T14:45:36;9.30;91.40
31639;DHT22;18248;51.522;7.020;2023-02-28T14:48:36;9.20;92.50
31639;DHT22;18248;51.522;7.020;2023-02-28T14:51:37;9.20;92.30
31639;DHT22;18248;51.522;7.020;2023-02-28T14:54:40;9.00;92.30
31639;DHT22;18248;51.522;7.020;2023-02-28T14:57:51;9.00;92.00
31639;DHT22;18248;51.522;7.020;2023-02-28T15:00:51;9.00;92.10
31639;DHT22;18248;51.522;7.020;2023-02-28T15:04:03;8.90;92.50
31639;DHT22;18248;51.522;7.020;2023-02-28T15:07:14;8.80;91.80
31639;DHT22;18248;51.522;7.020;2023-02-28T15:10:28;8.70;91.90
31639;DHT22;18248;51.522;7.020;2023-02-28T15:13:42;8.70;92.10
31639;DHT22;18248;51.522;7.020;2023-02-28T15:16:43;8.70;92.60
31639;DHT22;18248;51.522;7.020;2023-02-28T15:19:46;8.60;92.80
31639;DHT22;18248;51.522;7.020;2023-02-28T15:22:49;8.60;93.00
31639;DHT22;18248;51.522;7.020;2023-02-28T15:25:50;8.60;92.50
31639;DHT22;18248;51.522;7.020;2023-02-28T15:28:58;8.60;93.20
31639;DHT22;18248;51.522;7.020;2023-02-28T15:35:18;8.40;92.70
31639;DHT22;18248;51.522;7.020;2023-02-28T15:38:26;8.30;92.60
31639;DHT22;18248;51.522;7.020;2023-02-28T15:41:37;8.30;93.60
31639;DHT22;18248;51.522;7.020;2023-02-28T15:44:36;8.20;93.40
31639;DHT22;18248;51.522;7.020;2023-02-28T15:47:36;8.20;94.10
31639;DHT22;18248;51.522;7.020;2023-02-28T15:50:34;8.10;94.70
31639;DHT22;18248;51.522;7.020;2023-02-28T15:53:47;8.00;94.90
31639;DHT22;18248;51.522;7.020;2023-02-28T15:56:50;8.00;95.00
31639;DHT22;18248;51.522;7.020;2023-02-28T15:59:55;7.90;95.80
31639;DHT22;18248;51.522;7.020;2023-02-28T16:02:54;7.90;95.80
31639;DHT22;18248;51.522;7.020;2023-02-28T16:09:19;7.60;95.80
31639;DHT22;18248;51.522;7.020;2023-02-28T16:12:21;7.50;96.10
31639;DHT22;18248;51.522;7.020;2023-02-28T16:15:28;7.50;96.00
31639;DHT22;18248;51.522;7.020;2023-02-28T16:18:27;7.40;96.80
31639;DHT22;18248;51.522;7.020;2023-02-28T16:21:26;7.40;96.40
31639;DHT22;18248;51.522;7.020;2023-02-28T16:24:25;7.30;96.80
31639;DHT22;18248;51.522;7.020;2023-02-28T16:27:36;7.20;96.90
31639;DHT22;18248;51.522;7.020;2023-02-28T16:30:35;7.10;96.90
31639;DHT22;18248;51.522;7.020;2023-02-28T16:33:34;7.10;96.90
31639;DHT22;18248;51.522;7.020;2023-02-28T16:36:32;7.00;97.70
31639;DHT22;18248;51.522;7.020;2023-02-28T16:39:36;7.00;97.60
31639;DHT22;18248;51.522;7.020;2023-02-28T16:42:34;7.00;97.90
31639;DHT22;18248;51.522;7.020;2023-02-28T16:45:33;7.00;98.00
31639;DHT22;18248;51.522;7.020;2023-02-28T16:48:32;6.90;98.20
31639;DHT22;18248;51.522;7.020;2023-02-28T16:51:31;6.80;98.70
31639;DHT22;18248;51.522;7.020;2023-02-28T16:54:29;6.70;99.00
31639;DHT22;18248;51.522;7.020;2023-02-28T16:57:28;6.70;99.40
31639;DHT22;18248;51.522;7.020;2023-02-28T17:00:28;6.60;99.70
31639;DHT22;18248;51.522;7.020;2023-02-28T17:03:27;6.60;99.90
31639;DHT22;18248;51.522;7.020;2023-02-28T17:06:28;6.50;99.90
31639;DHT22;18248;51.522;7.020;2023-02-28T17:09:26;6.40;99.90
31639;DHT22;18248;51.522;7.020;2023-02-28T17:12:25;6.40;99.90
31639;DHT22;18248;51.522;7.020;2023-02-28T17:15:23;6.40;99.90
31639;DHT22;18248;51.522;7.020;2023-02-28T17:18:22;6.30;99.90
31639;DHT22;18248;51.522;7.020;2023-02-28T17:21:21;6.30;99.90
31639;DHT22;18248;51.522;7.020;2023-02-28T17:24:19;6.20;99.90
31639;DHT22;18248;51.522;7.020;2023-02-28T17:27:18;6.10;99.90
31639;DHT22;18248;51.522;7.020;2023-02-28T17:30:26;6.00;99.90
31639;DHT22;18248;51.522;7.020;2023-02-28T17:33:25;6.00;99.90
31639;DHT22;18248;51.522;7.020;2023-02-28T17:36:26;6.00;99.90
31639;DHT22;18248;51.522;7.020;2023-02-28T17:39:25;5.90;99.90
31639;DHT22;18248;51.522;7.020;2023-02-28T17:42:23;5.90;99.90
31639;DHT22;18248;51.522;7.020;2023-02-28T17:45:22;5.80;99.90
31639;DHT22;18248;51.522;7.020;2023-02-28T17:48:21;5.80;99.90
31639;DHT22;18248;51.522;7.020;2023-02-28T17:51:21;5.70;99.90
31639;DHT22;18248;51.522;7.020;2023-02-28T17:54:20;5.60;99.90
31639;DHT22;18248;51.522;7.020;2023-02-28T17:57:19;5.60;99.90
31639;DHT22;18248;51.522;7.020;2023-02-28T18:00:19;5.50;99.90
31639;DHT22;18248;51.522;7.020;2023-02-28T18:03:18;5.50;99.90
31639;DHT22;18248;51.522;7.020;2023-02-28T18:06:24;5.40;99.90
31639;DHT22;18248;51.522;7.020;2023-02-28T18:09:23;5.40;99.90
31639;DHT22;18248;51.522;7.020;2023-02-28T18:12:22;5.30;99.90
31639;DHT22;18248;51.522;7.020;2023-02-28T18:15:22;5.30;99.90
31639;DHT22;18248;51.522;7.020;2023-02-28T18:18:20;5.20;99.90
31639;DHT22;18248;51.522;7.020;2023-02-28T18:21:19;5.20;99.90
31639;DHT22;18248;51.522;7.020;2023-02-28T18:24:19;5.20;99.90
31639;DHT22;18248;51.522;7.020;2023-02-28T18:27:18;5.10;99.90
31639;DHT22;18248;51.522;7.020;2023-02-28T18:30:21;5.00;99.90
31639;DHT22;18248;51.522;7.020;2023-02-28T18:33:20;5.00;99.90
31639;DHT22;18248;51.522;7.020;2023-02-28T18:36:20;5.00;99.90
31639;DHT22;18248;51.522;7.020;2023-02-28T18:39:19;4.90;99.90
31639;DHT22;18248;51.522;7.020;2023-02-28T18:42:18;4.80;99.90
31639;DHT22;18248;51.522;7.020;2023-02-28T18:45:16;4.80;99.90
31639;DHT22;18248;51.522;7.020;2023-02-28T18:48:15;4.70;99.90
31639;DHT22;18248;51.522;7.020;2023-02-28T18:51:14;4.70;99.90
31639;DHT22;18248;51.522;7.020;2023-02-28T18:54:15;4.60;99.90
31639;DHT22;18248;51.522;7.020;2023-02-28T18:57:16;4.60;99.90
31639;DHT22;18248;51.522;7.020;2023-02-28T19:00:15;4.50;99.90
31639;DHT22;18248;51.522;7.020;2023-02-28T19:03:17;4.50;99.90
31639;DHT22;18248;51.522;7.020;2023-02-28T19:06:16;4.50;99.90
31639;DHT22;18248;51.522;7.020;2023-02-28T19:09:15;4.40;99.90
31639;DHT22;18248;51.522;7.020;2023-02-28T19:12:13;4.40;99.90
31639;DHT22;18248;51.522;7.020;2023-02-28T19:15:14;4.30;99.90
31639;DHT22;18248;51.522;7.020;2023-02-28T19:18:13;4.30;99.90
31639;DHT22;18248;51.522;7.020;2023-02-28T19:21:13;4.30;99.90
31639;DHT22;18248;51.522;7.020;2023-02-28T19:24:12;4.20;99.90
31639;DHT22;18248;51.522;7.020;2023-02-28T19:27:11;4.20;99.90
31639;DHT22;18248;51.522;7.020;2023-02-28T19:30:10;4.20;99.90
31639;DHT22;18248;51.522;7.020;2023-02-28T19:33:09;4.10;99.90
31639;DHT22;18248;51.522;7.020;2023-02-28T19:36:09;4.10;99.90
31639;DHT22;18248;51.522;7.020;2023-02-28T19:39:09;4.10;99.90
31639;DHT22;18248;51.522;7.020;2023-02-28T19:42:09;4.10;99.90
31639;DHT22;18248;51.522;7.020;2023-02-28T19:45:08;4.00;99.90
31639;DHT22;18248;51.522;7.020;2023-02-28T19:48:11;4.00;99.90
31639;DHT22;18248;51.522;7.020;2023-02-28T19:51:12;4.00;99.90
31639;DHT22;18248;51.522;7.020;2023-02-28T19:54:11;3.90;99.90
31639;DHT22;18248;51.522;7.020;2023-02-28T19:57:09;3.90;99.90
31639;DHT22;18248;51.522;7.020;2023-02-28T20:00:10;3.80;99.90
31639;DHT22;18248;51.522;7.020;2023-02-28T20:03:09;3.80;99.90
31639;DHT22;18248;51.522;7.020;2023-02-28T20:06:09;3.80;99.90
31639;DHT22;18248;51.522;7.020;2023-02-28T20:09:09;3.70;99.90
31639;DHT22;18248;51.522;7.020;2023-02-28T20:12:08;3.70;99.90
31639;DHT22;18248;51.522;7.020;2023-02-28T20:15:07;3.60;99.90
31639;DHT22;18248;51.522;7.020;2023-02-28T20:18:06;3.60;99.90
31639;DHT22;18248;51.522;7.020;2023-02-28T20:21:10;3.60;99.90
31639;DHT22;18248;51.522;7.020;2023-02-28T20:24:09;3.50;99.90
31639;DHT22;18248;51.522;7.020;2023-02-28T20:27:08;3.50;99.90
31639;DHT22;18248;51.522;7.020;2023-02-28T20:30:08;3.50;99.90
31639;DHT22;18248;51.522;7.020;2023-02-28T20:33:07;3.50;99.90
31639;DHT22;18248;51.522;7.020;2023-02-28T20:36:06;3.40;99.90
31639;DHT22;18248;51.522;7.020;2023-02-28T20:39:06;3.40;99.90
31639;DHT22;18248;51.522;7.020;2023-02-28T20:42:04;3.40;99.90
31639;DHT22;18248;51.522;7.020;2023-02-28T20:45:03;3.30;99.90
31639;DHT22;18248;51.522;7.020;2023-02-28T20:48:02;3.30;99.90
31639;DHT22;18248;51.522;7.020;2023-02-28T20:51:01;3.20;99.90
31639;DHT22;18248;51.522;7.020;2023-02-28T20:54:03;3.20;99.90
31639;DHT22;18248;51.522;7.020;2023-02-28T20:57:03;3.20;99.90
31639;DHT22;18248;51.522;7.020;2023-02-28T21:00:02;3.20;99.90
31639;DHT22;18248;51.522;7.020;2023-02-28T21:03:01;3.10;99.90
31639;DHT22;18248;51.522;7.020;2023-02-28T21:06:01;3.10;99.90
31639;DHT22;18248;51.522;7.020;2023-02-28T21:08:59;3.10;99.90
31639;DHT22;18248;51.522;7.020;2023-02-28T21:11:58;3.00;99.90
31639;DHT22;18248;51.522;7.020;2023-02-28T21:14:56;3.00;99.90
31639;DHT22;18248;51.522;7.020;2023-02-28T21:17:55;3.00;99.90
31639;DHT22;18248;51.522;7.020;2023-02-28T21:21:03;3.00;99.90
31639;DHT22;18248;51.522;7.020;2023-02-28T21:24:02;2.90;99.90
31639;DHT22;18248;51.522;7.020;2023-02-28T21:27:00;2.80;99.90
31639;DHT22;18248;51.522;7.020;2023-02-28T21:29:59;2.80;99.90
31639;DHT22;18248;51.522;7.020;2023-02-28T21:32:57;2.80;99.90